createdAt,value
2022-11-02T00:04:49.844Z,2.78
2022-11-02T00:09:52.434Z,2.62
2022-11-02T00:14:54.995Z,2.61
2022-11-02T00:19:58.178Z,2.69
2022-11-02T00:25:04.334Z,2.58
2022-11-02T00:30:07.583Z,2.61
2022-11-02T00:35:10.439Z,2.71
2022-11-02T00:40:13.072Z,2.59
2022-11-02T00:45:15.741Z,2.68
2022-11-02T00:50:18.570Z,2.76
2022-11-02T00:55:21.746Z,2.52
2022-11-02T01:00:24.707Z,2.57
2022-11-02T01:05:27.690Z,2.72
2022-11-02T01:10:30.478Z,2.48
2022-11-02T01:15:33.028Z,2.52
2022-11-02T01:20:36.340Z,2.72
2022-11-02T01:25:38.906Z,2.62
2022-11-02T01:30:41.646Z,2.53
2022-11-02T01:35:44.145Z,2.29
2022-11-02T01:40:48.068Z,2.36
2022-11-02T01:46:02.010Z,2.40
2022-11-02T01:51:11.331Z,2.17
2022-11-02T01:56:18.108Z,2.25
2022-11-02T02:01:22.135Z,2.41
2022-11-02T02:06:27.534Z,2.27
2022-11-02T02:11:36.299Z,2.17
2022-11-02T02:16:50.709Z,2.24
2022-11-02T02:22:20.956Z,2.12
2022-11-02T02:27:32.234Z,1.87
2022-11-02T02:32:49.435Z,1.25
2022-11-02T02:37:59.534Z,1.38
2022-11-02T02:43:49.458Z,1.80
2022-11-02T02:48:55.907Z,1.94
2022-11-02T02:54:03.482Z,1.98
2022-11-02T02:59:22.851Z,2.07
2022-11-02T03:04:26.031Z,2.06
2022-11-02T03:09:50.017Z,1.94
2022-11-02T03:15:05.006Z,1.95
2022-11-02T03:20:10.553Z,1.87
2022-11-02T03:25:20.799Z,2.09
2022-11-02T03:30:28.447Z,1.78
2022-11-02T03:35:35.611Z,1.88
2022-11-02T03:40:49.131Z,1.47
2022-11-02T03:45:57.192Z,1.39
2022-11-02T03:51:07.006Z,1.51
2022-11-02T03:56:20.145Z,1.58
2022-11-02T04:01:23.236Z,1.16
2022-11-02T04:06:27.431Z,1.10
2022-11-02T04:11:49.717Z,1.37
2022-11-02T04:17:15.091Z,1.45
2022-11-02T04:22:41.510Z,1.94
2022-11-02T04:27:53.155Z,1.63
2022-11-02T04:33:18.983Z,1.91
2022-11-02T04:38:42.912Z,2.10
2022-11-02T04:43:53.796Z,1.91
2022-11-02T04:48:56.611Z,1.77
2022-11-02T04:54:00.494Z,1.47
2022-11-02T04:59:04.754Z,1.69
2022-11-02T05:04:10.991Z,1.80
2022-11-02T05:09:14.927Z,1.97
2022-11-02T05:14:21.054Z,2.03
2022-11-02T05:19:23.890Z,1.98
2022-11-02T05:24:26.590Z,1.96
2022-11-02T05:29:30.108Z,1.95
2022-11-02T05:34:33.335Z,2.17
2022-11-02T05:39:37.353Z,2.17
2022-11-02T05:44:40.268Z,2.02
2022-11-02T05:49:42.892Z,1.94
2022-11-02T05:54:45.467Z,2.02
2022-11-02T05:59:49.446Z,2.33
2022-11-02T06:04:52.291Z,2.23
2022-11-02T06:09:54.936Z,2.22
2022-11-02T06:14:57.507Z,2.19
2022-11-02T06:20:00.035Z,2.50
2022-11-02T06:25:02.685Z,2.53
2022-11-02T06:30:07.319Z,2.35
2022-11-02T06:35:10.362Z,2.52
2022-11-02T06:40:14.423Z,2.52
2022-11-02T06:45:17.298Z,2.46
2022-11-02T06:50:20.214Z,2.74
2022-11-02T06:55:22.944Z,2.60
2022-11-02T07:00:25.681Z,2.91
2022-11-02T07:05:28.731Z,2.98
2022-11-02T07:10:31.972Z,3.20
2022-11-02T07:15:34.547Z,3.22
2022-11-02T07:20:37.318Z,3.29
2022-11-02T07:25:39.917Z,3.20
2022-11-02T07:30:42.837Z,2.87
2022-11-02T07:35:45.388Z,2.96
2022-11-02T07:40:52.783Z,2.98
2022-11-02T07:45:56.235Z,2.92
2022-11-02T07:51:02.078Z,2.72
2022-11-02T07:56:05.320Z,2.79
2022-11-02T08:01:08.003Z,2.58
2022-11-02T08:06:10.542Z,2.33
2022-11-02T08:11:13.166Z,2.47
2022-11-02T08:16:16.015Z,2.61
2022-11-02T08:21:18.578Z,2.23
2022-11-02T08:26:21.544Z,2.08
2022-11-02T08:31:24.241Z,2.39
2022-11-02T08:36:26.818Z,2.31
2022-11-02T08:41:29.756Z,2.74
2022-11-02T08:46:32.341Z,2.98
2022-11-02T08:51:34.810Z,3.30
2022-11-02T08:56:37.458Z,3.27
2022-11-02T09:01:40.324Z,3.14
2022-11-02T09:06:43.138Z,2.93
2022-11-02T09:11:45.818Z,2.96
2022-11-02T09:16:48.488Z,2.89
2022-11-02T09:21:51.680Z,2.91
2022-11-02T09:26:54.304Z,2.80
2022-11-02T09:31:56.864Z,2.74
2022-11-02T09:36:59.478Z,2.94
2022-11-02T09:42:13.918Z,2.84
2022-11-02T09:48:02.975Z,2.83
2022-11-02T09:52:43.562Z,3.12
2022-11-02T09:57:51.107Z,2.88
2022-11-02T10:03:12.459Z,2.51
2022-11-02T10:08:24.443Z,2.81
2022-11-02T10:13:42.277Z,2.94
2022-11-02T10:18:49.547Z,2.95
2022-11-02T10:23:54.933Z,2.69
2022-11-02T10:29:01.914Z,2.76
2022-11-02T10:34:24.537Z,2.76
2022-11-02T10:39:39.651Z,2.57
2022-11-02T10:45:11.579Z,2.52
2022-11-02T10:50:37.162Z,2.39
2022-11-02T10:55:55.575Z,2.22
2022-11-02T11:01:12.736Z,2.14
2022-11-02T11:06:15.538Z,2.36
2022-11-02T11:11:24.511Z,2.32
2022-11-02T11:16:50.160Z,2.50
2022-11-02T11:21:53.586Z,2.48
2022-11-02T11:27:12.135Z,2.51
2022-11-02T11:32:22.751Z,2.46
2022-11-02T11:37:28.642Z,2.01
2022-11-02T11:42:35.153Z,2.01
2022-11-02T11:47:40.561Z,2.25
2022-11-02T11:52:44.641Z,2.01
2022-11-02T11:57:47.713Z,1.89
2022-11-02T12:03:07.108Z,2.02
2022-11-02T12:08:16.034Z,1.83
2022-11-02T12:13:27.505Z,1.68
2022-11-02T12:18:42.108Z,1.77
2022-11-02T12:24:05.966Z,1.80
2022-11-02T12:29:41.330Z,1.86
2022-11-02T12:35:27.767Z,2.06
2022-11-02T12:41:09.719Z,1.69
2022-11-02T12:46:38.452Z,1.72
2022-11-02T12:51:52.890Z,1.78
2022-11-02T12:56:55.814Z,1.68
2022-11-02T13:07:19.632Z,1.62
2022-11-02T13:12:24.817Z,1.48
2022-11-02T13:17:45.999Z,1.58
2022-11-02T13:22:55.721Z,1.57
2022-11-02T13:28:06.101Z,1.20
2022-11-02T13:33:16.499Z,0.92
2022-11-02T13:38:55.690Z,0.97
2022-11-02T13:44:09.804Z,0.70
2022-11-02T13:49:17.129Z,0.41
2022-11-02T13:54:30.690Z,0.39
2022-11-02T13:59:43.264Z,-0.16
2022-11-02T14:04:48.747Z,-0.11
2022-11-02T14:09:58.869Z,-0.12
2022-11-02T14:15:13.634Z,0.06
2022-11-02T14:20:35.818Z,-0.03
2022-11-02T14:25:51.881Z,-0.34
2022-11-02T14:31:03.685Z,-0.48
2022-11-02T14:36:19.701Z,-0.42
2022-11-02T14:41:37.183Z,-0.56
2022-11-02T14:47:07.387Z,-0.27
2022-11-02T14:52:16.220Z,-0.10
2022-11-02T14:57:40.221Z,-0.13
2022-11-02T15:02:52.646Z,-0.21
2022-11-02T15:08:02.323Z,0.05
2022-11-02T15:13:20.223Z,0.06
2022-11-02T15:18:31.848Z,0.02
2022-11-02T15:23:43.428Z,-0.02
2022-11-02T15:28:50.068Z,-0.04
2022-11-02T15:33:59.442Z,-0.12
2022-11-02T15:39:10.698Z,-0.05
2022-11-02T15:44:31.564Z,-0.01
2022-11-02T15:50:05.385Z,-0.27
2022-11-02T15:55:11.043Z,-0.34
2022-11-02T16:00:23.694Z,-0.21
2022-11-02T16:05:29.690Z,-0.21
2022-11-02T16:10:37.664Z,-0.37
2022-11-02T16:15:43.783Z,-0.41
2022-11-02T16:20:46.739Z,-0.49
2022-11-02T16:25:50.978Z,-0.67
2022-11-02T16:31:19.253Z,-0.67
2022-11-02T16:36:23.929Z,-0.82
2022-11-02T16:41:32.304Z,-0.91
2022-11-02T16:46:40.723Z,-1.13
2022-11-02T16:51:58.372Z,-0.65
2022-11-02T16:57:11.449Z,-0.61
2022-11-02T17:02:16.016Z,-0.61
2022-11-02T17:07:32.157Z,-0.40
2022-11-02T17:12:38.339Z,-0.60
2022-11-02T17:17:40.998Z,-0.67
2022-11-02T17:23:01.412Z,-1.32
2022-11-02T17:28:41.865Z,-1.23
2022-11-02T17:33:45.204Z,-1.19
2022-11-02T17:38:47.939Z,-1.40
2022-11-02T17:43:50.476Z,-0.88
2022-11-02T17:48:53.002Z,-0.74
2022-11-02T17:53:55.594Z,-0.57
2022-11-02T17:58:58.509Z,-0.67
2022-11-02T18:04:00.985Z,-0.52
2022-11-02T18:09:14.051Z,-0.69
2022-11-02T18:14:17.123Z,-0.61
2022-11-02T18:19:19.809Z,-0.62
2022-11-02T18:24:22.342Z,-0.71
2022-11-02T18:29:25.102Z,-0.80
2022-11-02T18:34:27.709Z,-0.79
2022-11-02T18:39:30.359Z,-0.96
2022-11-02T18:44:33.220Z,-0.94
2022-11-02T18:49:35.722Z,-1.05
2022-11-02T18:54:38.314Z,-1.16
2022-11-02T18:59:41.072Z,-0.87
2022-11-02T19:04:43.625Z,-0.75
2022-11-02T19:09:46.541Z,-1.01
2022-11-02T19:14:51.699Z,-0.94
2022-11-02T19:19:54.635Z,-0.80
2022-11-02T19:24:57.315Z,-0.95
2022-11-02T19:30:00.148Z,-1.04
2022-11-02T19:35:08.668Z,-1.38
2022-11-02T19:40:12.089Z,-1.13
2022-11-02T19:45:17.989Z,-1.15
2022-11-02T19:50:24.980Z,-1.18
2022-11-02T19:55:29.601Z,-1.19
2022-11-02T20:00:32.379Z,-1.28
2022-11-02T20:05:35.067Z,-1.27
2022-11-02T20:10:37.559Z,-1.19
2022-11-02T20:15:40.697Z,-1.31
2022-11-02T20:20:43.376Z,-1.25
2022-11-02T20:25:46.963Z,-1.30
2022-11-02T20:30:49.679Z,-1.33
2022-11-02T20:35:52.291Z,-1.49
2022-11-02T20:40:54.972Z,-1.24
2022-11-02T20:46:31.546Z,-1.34
2022-11-02T20:51:29.475Z,-1.18
2022-11-02T20:56:32.006Z,-1.25
2022-11-02T21:01:35.329Z,-1.27
2022-11-02T21:06:37.999Z,-1.34
2022-11-02T21:11:59.026Z,-1.27
2022-11-02T21:17:02.961Z,-1.21
2022-11-02T21:22:05.635Z,-1.74
2022-11-02T21:27:08.325Z,-1.45
2022-11-02T21:32:11.018Z,-1.42
2022-11-02T21:37:13.668Z,-1.14
2022-11-02T21:42:16.188Z,-1.16
2022-11-02T21:47:18.819Z,-1.20
2022-11-02T21:52:21.345Z,-1.34
2022-11-02T21:57:23.932Z,-1.30
2022-11-02T22:02:26.659Z,-1.36
2022-11-02T22:07:49.386Z,-1.42
2022-11-02T22:13:10.324Z,-1.58
2022-11-02T22:18:12.841Z,-1.73
2022-11-02T22:23:15.370Z,-1.54
2022-11-02T22:28:17.924Z,-1.86
2022-11-02T22:33:20.626Z,-1.66
2022-11-02T22:38:41.786Z,-1.41
2022-11-02T22:43:44.377Z,-1.21
2022-11-02T22:48:47.045Z,-1.48
2022-11-02T22:53:50.277Z,-1.13
2022-11-02T22:58:52.862Z,-1.25
2022-11-02T23:03:56.034Z,-1.14
2022-11-02T23:08:59.280Z,-1.15
2022-11-02T23:14:10.921Z,-1.20
2022-11-02T23:19:45.132Z,-1.30
2022-11-02T23:25:11.963Z,-1.27
2022-11-02T23:30:33.902Z,-1.58
2022-11-02T23:35:55.055Z,-1.69
2022-11-02T23:40:57.528Z,-1.68
2022-11-02T23:46:00.053Z,-1.71
2022-11-02T23:51:20.919Z,-1.66
2022-11-02T23:56:42.208Z,-1.61
